»·PEaware :: SKW5984 KMRY-KSFO

SKW5984 :: KMRY-KSFO

FLIGHT INFORMATION

Flight Status: Arrived
Operator:
SkyWest Airlines
More flights by this operator :: More flights under this callsign
Pilot: Drew L. (13237)
Aircraft: CANADAIR CL-600 CRJ-700
(CRJ7)
More flights by this aircraft type
Origin: KMRY Monterey Peninsula
United States
Destination: KSFO San Francisco Intl
United States
More flights between these airports :: More routes between these airports
Route: SANTY EDDYY
File this flight plan on PilotEdge
Remarks: PBN / D1 DOF / 180403 REG / N921SB OPR / SKW PER / C RMK / TCAS SIMBRIEF
Altitude:
(Current/Filed)
10,000ft
Speed:
(Current/Filed)
325kts
Departed: 02-Apr-18 07:22 PM
Arrived: 02-Apr-18 07:42 PM
Distance/Time
Traveled:
67nm/0:20
Distance/Time
To Go:
Arrived

Flight Plot

Page will automatically refresh every two minutes.

Flight plan parsing failed; only flown route is shown


Map Options




Map Legend


Flown Route
Filed Route
Departure Airport
Arrival Airport
Navaid (VOR, NDB)
Fix

Horizontal Profiles

Position Reports

Time Latitude Longitude Heading Altitude Ground
Speed
02-Apr-18 18:39 36.587282 -121.849846 204 264ft 0kts
02-Apr-18 18:40 36.587282 -121.849846 204 264ft 0kts
02-Apr-18 18:41 36.587282 -121.849846 204 264ft 0kts
02-Apr-18 18:42 36.587282 -121.849846 204 264ft 0kts
02-Apr-18 18:43 36.587282 -121.849846 204 264ft 0kts
02-Apr-18 18:44 36.587282 -121.849846 204 264ft 0kts
02-Apr-18 18:45 36.587282 -121.849846 204 264ft 0kts
02-Apr-18 18:46 36.587282 -121.849846 204 264ft 0kts
02-Apr-18 18:47 36.587282 -121.849846 204 264ft 0kts
02-Apr-18 18:48 36.587282 -121.849846 204 264ft 0kts
02-Apr-18 18:49 36.587282 -121.849846 204 264ft 0kts
02-Apr-18 18:50 36.587282 -121.849846 204 264ft 0kts
02-Apr-18 18:51 36.587282 -121.849846 204 264ft 0kts
02-Apr-18 18:52 36.587282 -121.849846 204 264ft 0kts
02-Apr-18 18:53 36.587282 -121.849846 204 264ft 0kts
02-Apr-18 18:54 36.587282 -121.849846 204 264ft 0kts
02-Apr-18 18:55 36.587282 -121.849846 204 264ft 0kts
02-Apr-18 18:56 36.587282 -121.849846 204 264ft 0kts
02-Apr-18 18:57 36.587282 -121.849846 204 264ft 0kts
02-Apr-18 18:58 36.587282 -121.849846 204 264ft 0kts
02-Apr-18 18:59 36.587282 -121.849846 204 264ft 0kts
02-Apr-18 19:00 36.587282 -121.849846 204 264ft 0kts
02-Apr-18 19:01 36.587282 -121.849846 204 264ft 0kts
02-Apr-18 19:02 36.587282 -121.849846 204 264ft 0kts
02-Apr-18 19:03 36.587282 -121.849846 204 264ft 0kts
02-Apr-18 19:04 36.587282 -121.849846 204 264ft 0kts
02-Apr-18 19:05 36.587282 -121.849846 204 264ft 0kts
02-Apr-18 19:06 36.587282 -121.849846 204 264ft 0kts
02-Apr-18 19:07 36.587282 -121.849846 204 264ft 0kts
02-Apr-18 19:08 36.587282 -121.849846 204 264ft 0kts
02-Apr-18 19:09 36.587282 -121.849846 204 264ft 0kts
02-Apr-18 19:10 36.587282 -121.849846 204 264ft 0kts
02-Apr-18 19:11 36.587282 -121.849846 204 264ft 0kts
02-Apr-18 19:12 36.587282 -121.849846 204 264ft 0kts
02-Apr-18 19:13 36.587282 -121.849846 204 264ft 0kts
02-Apr-18 19:14 36.587281 -121.849846 204 264ft 0kts
02-Apr-18 19:15 36.587522 -121.849744 60 264ft 8kts
02-Apr-18 19:16 36.586272 -121.845486 113 264ft 15kts
02-Apr-18 19:17 36.584272 -121.839683 113 264ft 20kts
02-Apr-18 19:18 36.582653 -121.834527 71 264ft 5kts
02-Apr-18 19:19 36.582660 -121.834501 71 264ft 0kts
02-Apr-18 19:20 36.582723 -121.834337 62 264ft 5kts
02-Apr-18 19:21 36.587599 -121.846034 293 267ft 147kts
02-Apr-18 19:22 36.621695 -121.902221 336 2671ft 237kts
02-Apr-18 19:23 36.680549 -121.921402 343 5006ft 216kts
02-Apr-18 19:24 36.739324 -121.943268 343 6839ft 225kts
02-Apr-18 19:25 36.801412 -121.966670 343 6981ft 240kts
02-Apr-18 19:26 36.867200 -121.991480 343 6971ft 251kts
02-Apr-18 19:27 36.934600 -122.016646 346 8151ft 254kts
02-Apr-18 19:28 37.005709 -122.030790 348 9850ft 262kts
02-Apr-18 19:29 37.075882 -122.047541 347 9959ft 256kts
02-Apr-18 19:30 37.146480 -122.064334 348 9351ft 263kts
02-Apr-18 19:31 37.218254 -122.081435 349 8046ft 257kts
02-Apr-18 19:32 37.283938 -122.097248 349 7958ft 230kts
02-Apr-18 19:33 37.345950 -122.112000 349 7960ft 227kts
02-Apr-18 19:34 37.405932 -122.134346 349 7984ft 222kts
02-Apr-18 19:35 37.465604 -122.143301 354 6774ft 216kts
02-Apr-18 19:36 37.525070 -122.151111 354 5580ft 212kts
02-Apr-18 19:37 37.565125 -122.192517 280 4177ft 213kts
02-Apr-18 19:38 37.571809 -122.249336 278 2500ft 217kts
02-Apr-18 19:39 37.593057 -122.312934 297 837ft 178kts
02-Apr-18 19:40 37.610390 -122.355082 294 125ft 125kts
02-Apr-18 19:41 37.619929 -122.378915 231 20ft 12kts
02-Apr-18 19:42 37.619545 -122.379480 228 20ft 0kts

Navigation Log

Ident Type
Flight plan parsing failed, navigation log unavailable